createdAt,value
2022-11-22T00:02:11.118Z,2.22
2022-11-22T00:07:12.536Z,2.30
2022-11-22T00:12:13.946Z,1.85
2022-11-22T00:17:15.236Z,2.47
2022-11-22T00:22:16.477Z,2.80
2022-11-22T00:27:18.075Z,2.45
2022-11-22T00:32:19.331Z,3.30
2022-11-22T00:37:20.581Z,2.25
2022-11-22T00:42:21.882Z,2.23
2022-11-22T00:47:23.383Z,1.90
2022-11-22T00:52:24.638Z,1.20
2022-11-22T00:57:25.981Z,1.02
2022-11-22T01:02:27.204Z,1.20
2022-11-22T01:07:28.461Z,1.37
2022-11-22T01:12:29.966Z,1.10
2022-11-22T01:17:31.201Z,1.23
2022-11-22T01:22:32.664Z,0.75
2022-11-22T01:27:34.435Z,0.80
2022-11-22T01:32:35.683Z,1.20
2022-11-22T01:37:36.930Z,1.10
2022-11-22T01:42:44.189Z,1.00
2022-11-22T01:47:45.484Z,1.10
2022-11-22T01:52:46.772Z,0.90
2022-11-22T01:57:48.111Z,0.87
2022-11-22T02:02:57.224Z,1.10
2022-11-22T02:08:01.457Z,1.30
2022-11-22T02:13:03.214Z,1.25
2022-11-22T02:18:04.508Z,1.10
2022-11-22T02:23:11.569Z,0.90
2022-11-22T02:28:13.435Z,1.15
2022-11-22T02:33:14.730Z,1.05
2022-11-22T02:38:35.344Z,1.40
2022-11-22T02:43:42.119Z,1.35
2022-11-22T02:48:43.667Z,0.90
2022-11-22T02:53:48.769Z,1.40
2022-11-22T02:58:50.085Z,1.20
2022-11-22T03:03:51.345Z,1.17
2022-11-22T03:08:56.443Z,2.15
2022-11-22T03:13:58.084Z,1.20
2022-11-22T03:18:59.397Z,1.75
2022-11-22T03:24:00.669Z,1.00
2022-11-22T03:29:02.160Z,1.77
2022-11-22T03:34:03.441Z,1.10
2022-11-22T03:39:04.663Z,1.40
2022-11-22T03:44:05.955Z,1.20
2022-11-22T03:49:07.321Z,1.40
2022-11-22T03:54:08.587Z,1.60
2022-11-22T03:59:10.020Z,1.52
2022-11-22T04:04:11.468Z,1.30
2022-11-22T04:09:12.826Z,1.20
2022-11-22T04:14:32.854Z,1.17
2022-11-22T04:19:34.074Z,1.50
2022-11-22T04:24:54.066Z,1.60
2022-11-22T04:29:55.341Z,1.40
2022-11-22T04:34:56.626Z,1.40
2022-11-22T04:39:57.904Z,1.70
2022-11-22T04:44:59.138Z,1.40
2022-11-22T04:50:01.424Z,1.35
2022-11-22T04:55:02.685Z,1.40
2022-11-22T05:00:04.140Z,1.52
2022-11-22T05:05:05.653Z,1.65
2022-11-22T05:10:07.214Z,1.70
2022-11-22T05:15:09.391Z,1.63
2022-11-22T05:20:10.793Z,1.20
2022-11-22T05:25:12.011Z,4.60
2022-11-22T05:30:13.478Z,1.90
2022-11-22T05:35:14.847Z,1.90
2022-11-22T05:40:16.124Z,1.73
2022-11-22T05:45:17.485Z,1.60
2022-11-22T05:50:18.760Z,1.70
2022-11-22T05:55:20.164Z,1.38
2022-11-22T06:00:21.485Z,1.23
2022-11-22T06:05:22.771Z,1.80
2022-11-22T06:10:24.036Z,2.03
2022-11-22T06:15:25.303Z,1.60
2022-11-22T06:20:26.938Z,1.63
2022-11-22T06:25:28.519Z,1.33
2022-11-22T06:30:29.823Z,1.40
2022-11-22T06:35:31.098Z,1.90
2022-11-22T06:40:32.319Z,2.15
2022-11-22T06:45:33.546Z,1.80
2022-11-22T06:50:34.846Z,1.63
2022-11-22T06:55:50.177Z,2.17
2022-11-22T07:00:52.203Z,2.63
2022-11-22T07:05:53.741Z,2.15
2022-11-22T07:10:54.989Z,1.63
2022-11-22T07:15:57.181Z,1.70
2022-11-22T07:21:01.580Z,1.70
2022-11-22T07:26:02.866Z,5.33
2022-11-22T07:31:05.865Z,3.92
2022-11-22T07:36:11.328Z,2.95
2022-11-22T07:41:12.613Z,1.50
2022-11-22T07:46:24.634Z,1.80
2022-11-22T07:51:26.063Z,1.83
2022-11-22T07:56:27.342Z,2.00
2022-11-22T08:01:28.621Z,1.90
2022-11-22T08:06:30.062Z,2.10
2022-11-22T08:11:31.381Z,2.05
2022-11-22T08:16:32.823Z,1.93
2022-11-22T08:21:34.093Z,1.85
2022-11-22T08:26:35.425Z,1.40
2022-11-22T08:31:36.903Z,1.60
2022-11-22T08:36:38.363Z,1.60
2022-11-22T08:41:39.614Z,1.80
2022-11-22T08:46:40.914Z,1.52
2022-11-22T08:51:45.203Z,1.42
2022-11-22T08:56:46.507Z,1.20
2022-11-22T09:01:47.984Z,1.20
2022-11-22T09:12:10.729Z,1.15
2022-11-22T09:17:17.285Z,1.05
2022-11-22T09:22:21.783Z,1.00
2022-11-22T09:27:25.323Z,0.93
2022-11-22T09:32:32.228Z,1.10
2022-11-22T09:37:34.889Z,1.60
2022-11-22T09:42:53.361Z,1.58
2022-11-22T09:48:13.449Z,1.60
2022-11-22T09:53:41.013Z,1.15
2022-11-22T09:58:47.486Z,1.00
2022-11-22T10:03:51.771Z,1.20
2022-11-22T10:08:59.217Z,1.15
2022-11-22T10:14:27.004Z,1.40
2022-11-22T10:19:37.553Z,1.40
2022-11-22T10:24:39.018Z,1.73
2022-11-22T10:29:45.195Z,2.53
2022-11-22T10:34:49.251Z,2.50
2022-11-22T10:40:02.610Z,2.40
2022-11-22T10:45:15.051Z,1.80
2022-11-22T10:50:18.118Z,1.00
2022-11-22T10:55:22.415Z,1.33
2022-11-22T11:00:25.108Z,1.40
2022-11-22T11:05:32.000Z,1.17
2022-11-22T11:10:36.926Z,1.45
2022-11-22T11:15:41.681Z,5.47
2022-11-22T11:20:43.737Z,4.20
2022-11-22T11:25:46.199Z,3.83
2022-11-22T11:31:10.604Z,2.00
2022-11-22T11:36:15.008Z,1.50
2022-11-22T11:41:17.446Z,2.10
2022-11-22T11:46:20.147Z,2.08
2022-11-22T11:51:26.023Z,3.20
2022-11-22T11:56:30.265Z,4.03
2022-11-22T12:01:38.360Z,4.78
2022-11-22T12:06:40.097Z,2.23
2022-11-22T12:11:48.969Z,3.05
2022-11-22T12:16:52.876Z,4.32
2022-11-22T12:22:29.215Z,1.47
2022-11-22T12:27:34.495Z,1.40
2022-11-22T12:32:38.598Z,1.50
2022-11-22T12:37:51.731Z,2.63
2022-11-22T12:42:55.944Z,1.88
2022-11-22T12:47:58.709Z,4.57
2022-11-22T12:53:35.528Z,1.10
2022-11-22T12:58:41.383Z,2.57
2022-11-22T13:03:48.587Z,2.78
2022-11-22T13:09:03.991Z,1.90
2022-11-22T13:14:07.795Z,4.60
2022-11-22T13:19:13.423Z,1.15
2022-11-22T13:24:27.012Z,1.73
2022-11-22T13:29:29.404Z,2.97
2022-11-22T13:34:31.472Z,2.75
2022-11-22T13:39:32.956Z,9.77
2022-11-22T13:44:36.416Z,3.38
2022-11-22T13:49:48.824Z,2.63
2022-11-22T13:54:52.610Z,2.88
2022-11-22T14:00:15.150Z,1.77
2022-11-22T14:05:20.958Z,5.07
2022-11-22T14:10:28.455Z,2.33
2022-11-22T14:15:53.787Z,1.50
2022-11-22T14:20:55.042Z,2.85
2022-11-22T14:26:08.583Z,5.10
2022-11-22T14:31:24.218Z,2.50
2022-11-22T14:36:25.501Z,1.70
2022-11-22T14:41:26.921Z,1.87
2022-11-22T14:46:52.390Z,4.82
2022-11-22T14:51:55.260Z,1.10
2022-11-22T14:57:03.953Z,0.80
2022-11-22T15:02:14.645Z,1.02
2022-11-22T15:09:10.583Z,1.20
2022-11-22T15:12:55.945Z,2.70
2022-11-22T16:01:19.150Z,1.00
2022-11-22T16:06:26.161Z,1.40
2022-11-22T16:11:30.292Z,1.35
2022-11-22T16:16:34.374Z,1.30
2022-11-22T16:21:35.618Z,1.30
2022-11-22T16:26:36.896Z,1.40
2022-11-22T16:31:39.926Z,1.30
2022-11-22T16:36:41.252Z,1.30
2022-11-22T16:41:42.491Z,1.43
2022-11-22T16:46:43.746Z,1.30
2022-11-22T16:51:46.367Z,1.20
2022-11-22T16:56:47.872Z,1.10
2022-11-22T17:01:49.654Z,0.80
2022-11-22T17:06:51.230Z,0.90
2022-11-22T17:11:52.558Z,0.88
2022-11-22T17:16:53.831Z,0.97
2022-11-22T17:21:55.050Z,1.67
2022-11-22T17:26:56.326Z,1.75
2022-11-22T17:31:57.613Z,2.33
2022-11-22T17:36:58.890Z,2.38
2022-11-22T17:42:00.132Z,2.10
2022-11-22T17:47:01.574Z,2.20
2022-11-22T17:52:02.836Z,2.60
2022-11-22T17:57:04.165Z,3.17
2022-11-22T18:02:05.488Z,3.30
2022-11-22T18:07:06.855Z,2.87
2022-11-22T18:12:08.449Z,2.42
2022-11-22T18:17:09.761Z,2.10
2022-11-22T18:22:11.044Z,2.75
2022-11-22T18:27:12.572Z,3.15
2022-11-22T18:32:13.847Z,2.60
2022-11-22T18:37:15.191Z,2.15
2022-11-22T18:42:16.937Z,2.67
2022-11-22T18:47:18.217Z,2.10
2022-11-22T18:52:19.439Z,3.05
2022-11-22T18:57:20.673Z,4.07
2022-11-22T19:02:25.710Z,1.92
2022-11-22T19:07:27.049Z,1.45
2022-11-22T19:12:28.929Z,1.40
2022-11-22T19:17:30.234Z,1.75
2022-11-22T19:22:31.463Z,1.60
2022-11-22T19:27:32.736Z,1.67
2022-11-22T19:32:33.982Z,2.40
2022-11-22T19:37:35.829Z,2.37
2022-11-22T19:42:38.359Z,2.10
2022-11-22T19:47:39.696Z,2.47
2022-11-22T19:52:40.936Z,2.80
2022-11-22T19:57:42.212Z,2.53
2022-11-22T20:02:43.550Z,5.07
2022-11-22T20:07:44.889Z,6.78
2022-11-22T20:12:46.178Z,6.13
2022-11-22T20:17:47.461Z,4.40
2022-11-22T20:22:48.687Z,3.20
2022-11-22T20:27:50.056Z,4.90
2022-11-22T20:32:52.674Z,8.80
2022-11-22T20:37:53.981Z,3.70
2022-11-22T20:42:55.287Z,2.50
2022-11-22T20:47:56.567Z,3.35
2022-11-22T20:52:57.806Z,4.32
2022-11-22T20:57:59.044Z,3.10
2022-11-22T21:03:00.278Z,3.20
2022-11-22T21:08:05.013Z,4.00
2022-11-22T21:13:06.650Z,4.85
2022-11-22T21:18:24.727Z,5.40
2022-11-22T21:23:26.790Z,5.30
2022-11-22T21:28:28.222Z,6.50
2022-11-22T21:33:30.455Z,6.25
2022-11-22T21:38:32.563Z,7.03
2022-11-22T21:43:33.891Z,8.20
2022-11-22T21:48:35.134Z,6.25
2022-11-22T21:53:36.412Z,5.13
2022-11-22T21:58:37.691Z,5.57
2022-11-22T22:03:40.154Z,5.60
2022-11-22T22:08:41.456Z,5.90
2022-11-22T22:13:43.022Z,8.57
2022-11-22T22:18:45.051Z,6.87
2022-11-22T22:23:46.393Z,6.82
2022-11-22T22:28:47.755Z,7.55
2022-11-22T22:33:50.208Z,6.28
2022-11-22T22:38:51.612Z,6.28
2022-11-22T22:43:52.880Z,5.60
2022-11-22T22:48:57.008Z,5.80
2022-11-22T22:53:58.445Z,5.72
2022-11-22T22:59:01.022Z,6.28
2022-11-22T23:04:02.745Z,6.95
2022-11-22T23:09:05.215Z,6.30
2022-11-22T23:14:06.471Z,6.13
2022-11-22T23:19:08.095Z,6.03
2022-11-22T23:24:09.639Z,5.72
2022-11-22T23:29:10.934Z,5.53
2022-11-22T23:34:12.342Z,5.60
2022-11-22T23:39:13.627Z,6.15
2022-11-22T23:44:14.930Z,5.07
2022-11-22T23:49:16.180Z,4.85
2022-11-22T23:54:17.616Z,5.00
2022-11-22T23:59:21.496Z,4.20
